Terminal Aerodrome Forecast
Issued by NWS

Home | Current Version | Previous Version | Text Only | Print | Product List | Glossary On
Versions: 1 2 3 4 5 6 7 8 9 10 11 12 13 14 15 16 17 18 19 20 21 22 23 24
000
FTUS46 KLOX 301139
TAFBUR
TAF
KBUR 301139Z 3012/3112 VRB05KT P6SM SCT015
     FM301300 VRB05KT P6SM BKN015
     FM301600 VRB05KT P6SM BKN022
     FM302000 17010KT P6SM SCT025
     FM310700 VRB05KT P6SM BKN015=

USA.gov is the U.S. government's official web portal to all federal, state and local government web resources and services.